createdAt,value
2022-11-16T00:00:25.596Z,2.50
2022-11-16T00:01:30.297Z,4.03
2022-11-16T00:02:32.954Z,2.88
2022-11-16T00:03:36.105Z,4.18
2022-11-16T00:04:39.080Z,3.60
2022-11-16T00:05:41.675Z,2.97
2022-11-16T00:06:46.000Z,2.70
2022-11-16T00:07:48.628Z,2.42
2022-11-16T00:09:14.682Z,2.88
2022-11-16T00:10:17.410Z,2.58
2022-11-16T00:11:20.321Z,2.13
2022-11-16T00:12:22.909Z,2.40
2022-11-16T00:13:25.598Z,2.42
2022-11-16T00:14:30.672Z,2.70
2022-11-16T00:15:33.351Z,2.72
2022-11-16T00:16:35.993Z,2.30
2022-11-16T00:17:38.673Z,2.60
2022-11-16T00:18:41.583Z,2.40
2022-11-16T00:19:44.241Z,2.20
2022-11-16T00:20:47.080Z,2.78
2022-11-16T00:21:50.010Z,2.80
2022-11-16T00:22:52.577Z,2.50
2022-11-16T00:23:55.341Z,2.50
2022-11-16T00:24:57.909Z,4.10
2022-11-16T00:26:06.094Z,2.30
2022-11-16T00:27:08.681Z,2.38
2022-11-16T00:28:11.807Z,2.10
2022-11-16T00:29:19.732Z,3.28
2022-11-16T00:30:22.372Z,2.35
2022-11-16T00:31:25.443Z,3.30
2022-11-16T00:32:28.088Z,2.05
2022-11-16T00:33:31.102Z,2.72
2022-11-16T00:34:33.797Z,2.20
2022-11-16T00:35:40.320Z,2.13
2022-11-16T00:36:43.395Z,2.53
2022-11-16T00:37:45.954Z,2.65
2022-11-16T00:38:53.984Z,3.90
2022-11-16T00:39:56.713Z,2.28
2022-11-16T00:40:59.291Z,2.42
2022-11-16T00:42:01.959Z,2.50
2022-11-16T00:43:05.417Z,2.53
2022-11-16T00:44:08.184Z,2.38
2022-11-16T00:45:11.419Z,2.10
2022-11-16T00:46:13.957Z,2.50
2022-11-16T00:47:16.693Z,2.15
2022-11-16T00:48:19.926Z,2.60
2022-11-16T00:49:22.596Z,2.35
2022-11-16T00:50:25.208Z,2.40
2022-11-16T00:51:28.252Z,4.20
2022-11-16T00:52:31.246Z,2.70
2022-11-16T00:53:35.802Z,2.17
2022-11-16T00:54:38.552Z,3.03
2022-11-16T00:55:41.489Z,2.30
2022-11-16T00:56:45.296Z,2.47
2022-11-16T00:57:48.446Z,2.42
2022-11-16T00:58:51.990Z,2.47
2022-11-16T00:59:54.603Z,2.13
2022-11-16T01:01:02.965Z,2.35
2022-11-16T01:02:05.575Z,2.30
2022-11-16T01:03:08.333Z,2.25
2022-11-16T01:04:11.135Z,3.00
2022-11-16T01:05:13.732Z,2.40
2022-11-16T01:06:17.624Z,2.35
2022-11-16T01:07:20.353Z,2.42
2022-11-16T01:08:23.204Z,2.40
2022-11-16T01:09:25.802Z,2.58
2022-11-16T01:10:28.936Z,2.25
2022-11-16T01:11:50.215Z,2.38
2022-11-16T01:12:54.479Z,2.25
2022-11-16T01:13:57.099Z,2.20
2022-11-16T01:14:59.801Z,2.58
2022-11-16T01:16:02.544Z,2.72
2022-11-16T01:17:05.281Z,2.63
2022-11-16T01:18:07.896Z,3.63
2022-11-16T01:19:10.730Z,2.35
2022-11-16T01:20:17.230Z,2.47
2022-11-16T01:21:20.933Z,3.75
2022-11-16T01:22:23.543Z,2.28
2022-11-16T01:23:26.210Z,2.50
2022-11-16T01:24:29.311Z,2.60
2022-11-16T01:25:32.053Z,2.42
2022-11-16T01:26:34.660Z,3.10
2022-11-16T01:27:38.008Z,2.80
2022-11-16T01:28:42.968Z,2.33
2022-11-16T01:29:46.570Z,2.53
2022-11-16T01:30:49.947Z,2.60
2022-11-16T01:31:52.911Z,3.40
2022-11-16T01:32:55.594Z,2.40
2022-11-16T01:33:58.311Z,2.70
2022-11-16T01:35:04.902Z,2.65
2022-11-16T01:36:15.036Z,2.42
2022-11-16T01:37:19.211Z,2.10
2022-11-16T01:38:25.912Z,2.17
2022-11-16T01:39:31.146Z,2.55
2022-11-16T01:40:37.824Z,3.13
2022-11-16T01:41:41.863Z,2.72
2022-11-16T01:42:44.480Z,2.97
2022-11-16T01:44:02.616Z,3.83
2022-11-16T01:45:26.077Z,2.30
2022-11-16T01:46:32.473Z,3.45
2022-11-16T01:47:35.167Z,2.40
2022-11-16T01:48:38.737Z,2.30
2022-11-16T01:49:51.784Z,2.28
2022-11-16T01:50:58.543Z,3.67
2022-11-16T01:52:06.936Z,4.03
2022-11-16T01:53:13.364Z,2.40
2022-11-16T01:54:24.455Z,2.75
2022-11-16T01:55:33.997Z,3.45
2022-11-16T01:56:52.809Z,2.40
2022-11-16T01:58:07.007Z,2.42
2022-11-16T01:59:15.560Z,2.30
2022-11-16T02:00:19.247Z,2.28
2022-11-16T02:01:35.243Z,2.30
2022-11-16T02:02:38.844Z,2.95
2022-11-16T02:03:41.769Z,3.92
2022-11-16T02:04:46.236Z,2.30
2022-11-16T02:06:15.388Z,2.70
2022-11-16T02:08:03.316Z,2.10
2022-11-16T02:09:37.158Z,3.92
2022-11-16T02:11:07.596Z,2.90
2022-11-16T02:12:28.478Z,2.30
2022-11-16T02:13:54.055Z,2.50
2022-11-16T02:15:25.468Z,2.10
2022-11-16T02:17:09.902Z,2.25
2022-11-16T02:18:33.061Z,3.33
2022-11-16T02:20:01.137Z,2.28
2022-11-16T02:21:23.291Z,2.88
2022-11-16T02:22:47.440Z,2.28
2022-11-16T02:24:08.346Z,3.60
2022-11-16T02:25:37.899Z,2.22
2022-11-16T02:27:16.736Z,2.42
2022-11-16T02:28:44.321Z,2.30
2022-11-16T02:29:52.495Z,2.67
2022-11-16T02:30:59.035Z,2.33
2022-11-16T02:32:21.091Z,2.40
2022-11-16T02:33:32.749Z,2.42
2022-11-16T02:34:42.882Z,2.42
2022-11-16T02:35:52.726Z,2.72
2022-11-16T02:36:58.860Z,2.25
2022-11-16T02:38:08.085Z,2.70
2022-11-16T02:39:19.014Z,2.67
2022-11-16T02:40:24.138Z,2.40
2022-11-16T02:41:32.569Z,2.88
2022-11-16T02:43:10.176Z,2.53
2022-11-16T02:44:17.906Z,2.33
2022-11-16T02:45:29.139Z,2.72
2022-11-16T02:46:40.867Z,2.85
2022-11-16T02:47:46.821Z,2.50
2022-11-16T02:48:53.466Z,2.33
2022-11-16T02:50:05.030Z,2.70
2022-11-16T02:51:08.800Z,2.65
2022-11-16T02:52:13.843Z,3.83
2022-11-16T02:53:16.732Z,2.55
2022-11-16T02:54:21.677Z,2.35
2022-11-16T02:55:31.597Z,2.40
2022-11-16T02:57:03.574Z,2.80
2022-11-16T02:58:11.358Z,2.60
2022-11-16T02:59:17.657Z,2.72
2022-11-16T03:00:30.797Z,2.72
2022-11-16T03:01:39.305Z,2.42
2022-11-16T03:02:56.546Z,3.03
2022-11-16T03:04:08.897Z,2.67
2022-11-16T03:05:32.277Z,2.80
2022-11-16T03:06:41.702Z,2.70
2022-11-16T03:07:57.189Z,2.78
2022-11-16T03:09:06.191Z,2.25
2022-11-16T03:10:10.327Z,2.80
2022-11-16T03:11:33.082Z,4.25
2022-11-16T03:12:38.900Z,2.53
2022-11-16T03:13:43.581Z,2.67
2022-11-16T03:14:59.877Z,2.53
2022-11-16T03:16:11.660Z,2.25
2022-11-16T03:17:32.019Z,3.95
2022-11-16T03:18:35.309Z,2.90
2022-11-16T03:19:43.385Z,2.60
2022-11-16T03:20:48.551Z,2.42
2022-11-16T03:22:07.653Z,2.53
2022-11-16T03:23:13.876Z,2.50
2022-11-16T03:24:19.119Z,2.60
2022-11-16T03:25:27.153Z,2.90
2022-11-16T03:26:35.704Z,3.05
2022-11-16T03:27:43.823Z,2.45
2022-11-16T03:28:57.483Z,2.50
2022-11-16T03:30:08.349Z,2.63
2022-11-16T03:31:17.992Z,2.55
2022-11-16T03:32:48.765Z,2.80
2022-11-16T03:33:56.807Z,2.22
2022-11-16T03:35:35.351Z,2.60
2022-11-16T03:36:42.481Z,2.60
2022-11-16T03:37:47.603Z,2.25
2022-11-16T03:38:52.989Z,3.08
2022-11-16T03:39:59.071Z,2.67
2022-11-16T03:41:06.097Z,2.97
2022-11-16T03:42:14.249Z,2.67
2022-11-16T03:43:21.182Z,3.13
2022-11-16T03:44:24.091Z,3.08
2022-11-16T03:45:27.329Z,2.60
2022-11-16T03:46:30.127Z,2.65
2022-11-16T03:47:32.843Z,2.85
2022-11-16T03:48:37.342Z,2.63
2022-11-16T03:49:46.127Z,2.70
2022-11-16T03:50:50.260Z,2.90
2022-11-16T03:51:53.577Z,2.85
2022-11-16T03:52:56.511Z,2.60
2022-11-16T03:53:59.268Z,2.50
2022-11-16T03:55:02.131Z,2.40
2022-11-16T03:56:05.982Z,3.08
2022-11-16T03:57:15.586Z,2.78
2022-11-16T03:58:20.959Z,2.45
2022-11-16T03:59:23.595Z,2.45
2022-11-16T04:00:26.383Z,2.45
2022-11-16T04:01:29.170Z,2.65
2022-11-16T04:02:31.965Z,2.33
2022-11-16T04:03:34.980Z,2.63
2022-11-16T04:04:56.338Z,3.05
2022-11-16T04:06:25.650Z,2.78
2022-11-16T04:07:46.957Z,2.33
2022-11-16T04:09:09.146Z,2.90
2022-11-16T04:10:32.976Z,2.85
2022-11-16T04:11:54.466Z,4.07
2022-11-16T04:13:18.085Z,3.80
2022-11-16T04:14:41.033Z,2.90
2022-11-16T04:16:05.586Z,2.92
2022-11-16T04:17:36.388Z,2.78
2022-11-16T04:18:57.948Z,2.80
2022-11-16T04:20:19.574Z,2.95
2022-11-16T04:21:46.329Z,2.83
2022-11-16T04:23:23.009Z,2.88
2022-11-16T04:25:36.072Z,3.20
2022-11-16T04:26:58.198Z,3.05
2022-11-16T04:28:19.032Z,3.10
2022-11-16T04:29:31.989Z,2.90
2022-11-16T04:30:54.622Z,2.65
2022-11-16T04:32:15.536Z,3.13
2022-11-16T04:33:37.439Z,2.67
2022-11-16T04:34:58.792Z,4.97
2022-11-16T04:36:20.956Z,3.45
2022-11-16T04:37:43.086Z,2.95
2022-11-16T04:38:46.175Z,3.08
2022-11-16T04:39:50.298Z,3.65
2022-11-16T04:40:53.065Z,3.60
2022-11-16T04:42:17.524Z,3.22
2022-11-16T04:43:22.395Z,3.03
2022-11-16T04:44:29.897Z,3.15
2022-11-16T04:45:51.669Z,3.38
2022-11-16T04:47:08.957Z,3.17
2022-11-16T04:48:15.803Z,3.58
2022-11-16T04:49:18.553Z,3.63
2022-11-16T04:50:21.456Z,3.50
2022-11-16T04:51:25.321Z,3.95
2022-11-16T04:52:28.220Z,3.40
2022-11-16T04:53:31.798Z,3.40
2022-11-16T04:54:41.221Z,3.75
2022-11-16T04:55:44.971Z,3.75
2022-11-16T04:56:49.536Z,3.33
2022-11-16T04:57:52.283Z,3.22
2022-11-16T04:58:55.747Z,3.30
2022-11-16T04:59:58.585Z,3.42
2022-11-16T05:01:01.302Z,3.40
2022-11-16T05:02:10.868Z,3.67
2022-11-16T05:03:29.900Z,3.33
2022-11-16T05:04:32.791Z,3.80
2022-11-16T05:05:35.409Z,3.50
2022-11-16T05:06:37.958Z,3.67
2022-11-16T05:07:40.749Z,3.58
2022-11-16T05:08:49.728Z,4.38
2022-11-16T05:09:52.543Z,4.20
2022-11-16T05:10:55.119Z,3.88
2022-11-16T05:11:57.716Z,4.15
2022-11-16T05:13:01.117Z,3.80
2022-11-16T05:14:05.463Z,3.88
2022-11-16T05:15:09.555Z,4.28
2022-11-16T05:16:12.221Z,4.00
2022-11-16T05:17:17.395Z,4.15
2022-11-16T05:18:20.117Z,3.65
2022-11-16T05:19:41.953Z,4.10
2022-11-16T05:21:02.891Z,4.18
2022-11-16T05:22:12.612Z,4.82
2022-11-16T05:23:33.639Z,3.33
2022-11-16T05:24:42.372Z,5.18
2022-11-16T05:25:44.986Z,3.85
2022-11-16T05:26:47.768Z,4.13
2022-11-16T05:27:50.381Z,3.92
2022-11-16T05:28:52.978Z,4.40
2022-11-16T05:29:57.055Z,4.20
2022-11-16T05:30:59.867Z,4.15
2022-11-16T05:32:05.662Z,4.32
2022-11-16T05:33:08.370Z,4.00
2022-11-16T05:34:15.186Z,4.22
2022-11-16T05:35:17.937Z,4.28
2022-11-16T05:36:20.791Z,3.67
2022-11-16T05:37:26.879Z,4.88
2022-11-16T05:38:29.626Z,3.85
2022-11-16T05:39:35.397Z,4.15
2022-11-16T05:40:38.583Z,4.10
2022-11-16T05:41:41.285Z,4.30
2022-11-16T05:42:44.088Z,4.53
2022-11-16T05:43:46.719Z,4.43
2022-11-16T05:45:56.832Z,4.00
2022-11-16T05:46:59.861Z,4.43
2022-11-16T05:48:04.155Z,4.55
2022-11-16T05:49:09.773Z,4.97
2022-11-16T05:50:12.494Z,4.28
2022-11-16T05:51:17.156Z,4.20
2022-11-16T05:52:19.778Z,4.95
2022-11-16T05:53:22.323Z,4.78
2022-11-16T05:54:26.379Z,4.55
2022-11-16T05:55:29.097Z,4.43
2022-11-16T05:56:33.314Z,4.85
2022-11-16T05:57:35.952Z,4.63
2022-11-16T05:58:38.602Z,5.18
2022-11-16T05:59:41.777Z,4.50
2022-11-16T06:00:46.982Z,4.53
2022-11-16T06:01:51.451Z,4.88
2022-11-16T06:02:54.255Z,4.88
2022-11-16T06:04:02.486Z,4.30
2022-11-16T06:05:06.968Z,4.38
2022-11-16T06:06:09.907Z,4.90
2022-11-16T06:07:12.635Z,4.53
2022-11-16T06:08:16.156Z,5.82
2022-11-16T06:09:18.960Z,4.00
2022-11-16T06:10:23.597Z,4.63
2022-11-16T06:11:34.334Z,4.68
2022-11-16T06:12:38.916Z,4.07
2022-11-16T06:13:41.765Z,4.28
2022-11-16T06:14:44.330Z,4.15
2022-11-16T06:15:52.736Z,4.45
2022-11-16T06:16:55.353Z,3.78
2022-11-16T06:17:58.205Z,4.63
2022-11-16T06:19:01.097Z,4.78
2022-11-16T06:20:04.529Z,4.13
2022-11-16T06:21:08.855Z,4.72
2022-11-16T06:22:11.634Z,5.15
2022-11-16T06:23:14.497Z,3.50
2022-11-16T06:24:17.382Z,4.45
2022-11-16T06:25:20.102Z,4.40
2022-11-16T06:26:23.012Z,4.68
2022-11-16T06:27:25.819Z,4.70
2022-11-16T06:28:29.183Z,4.25
2022-11-16T06:29:31.852Z,5.00
2022-11-16T06:30:34.915Z,4.07
2022-11-16T06:31:38.790Z,4.80
2022-11-16T06:32:42.252Z,4.10
2022-11-16T06:33:45.545Z,4.53
2022-11-16T06:34:59.514Z,4.28
2022-11-16T06:36:02.489Z,4.75
2022-11-16T06:37:05.836Z,4.32
2022-11-16T06:38:08.977Z,4.22
2022-11-16T06:39:13.296Z,4.40
2022-11-16T06:40:16.546Z,5.13
2022-11-16T06:41:20.318Z,4.40
2022-11-16T06:42:25.001Z,4.82
2022-11-16T06:43:29.350Z,4.53
2022-11-16T06:44:32.082Z,5.03
2022-11-16T06:45:38.680Z,5.53
2022-11-16T06:46:41.487Z,5.18
2022-11-16T06:47:44.522Z,4.85
2022-11-16T06:48:47.511Z,4.93
2022-11-16T06:49:50.237Z,6.20
2022-11-16T06:50:56.874Z,5.15
2022-11-16T06:51:59.638Z,5.43
2022-11-16T06:53:02.403Z,5.10
2022-11-16T06:54:06.470Z,4.45
2022-11-16T06:55:09.562Z,6.38
2022-11-16T06:56:16.422Z,5.00
2022-11-16T06:57:24.841Z,5.35
2022-11-16T06:58:31.846Z,4.78
2022-11-16T06:59:34.987Z,4.78
2022-11-16T07:00:37.802Z,4.43
2022-11-16T07:01:40.524Z,4.85
2022-11-16T07:02:47.915Z,4.90
2022-11-16T07:03:53.445Z,4.53
2022-11-16T07:05:02.198Z,5.00
2022-11-16T07:06:12.926Z,5.18
2022-11-16T07:07:18.216Z,5.30
2022-11-16T07:08:21.575Z,5.38
2022-11-16T07:09:24.627Z,5.28
2022-11-16T07:10:27.680Z,5.45
2022-11-16T07:11:30.385Z,4.57
2022-11-16T07:12:34.322Z,5.22
2022-11-16T07:13:38.835Z,4.80
2022-11-16T07:14:42.712Z,5.10
2022-11-16T07:15:46.606Z,5.80
2022-11-16T07:16:49.274Z,4.38
2022-11-16T07:17:51.961Z,5.03
2022-11-16T07:18:58.047Z,5.18
2022-11-16T07:20:01.909Z,5.32
2022-11-16T07:21:13.696Z,4.57
2022-11-16T07:22:17.514Z,4.85
2022-11-16T07:23:20.190Z,5.18
2022-11-16T07:24:22.882Z,4.75
2022-11-16T07:25:25.556Z,5.85
2022-11-16T07:26:31.308Z,4.78
2022-11-16T07:27:40.113Z,5.68
2022-11-16T07:28:47.884Z,5.07
2022-11-16T07:29:53.144Z,5.00
2022-11-16T07:31:25.956Z,5.28
2022-11-16T07:32:48.547Z,5.30
2022-11-16T07:33:58.400Z,4.90
2022-11-16T07:35:18.375Z,5.00
2022-11-16T07:36:21.801Z,5.13
2022-11-16T07:37:24.586Z,5.47
2022-11-16T07:38:27.480Z,4.60
2022-11-16T07:39:30.082Z,4.97
2022-11-16T07:40:33.275Z,5.63
2022-11-16T07:41:42.721Z,5.57
2022-11-16T07:42:59.004Z,4.88
2022-11-16T07:44:01.863Z,5.45
2022-11-16T07:45:08.573Z,4.90
2022-11-16T07:47:41.893Z,5.15
2022-11-16T07:48:49.657Z,5.45
2022-11-16T07:49:52.236Z,5.45
2022-11-16T07:51:01.758Z,5.68
2022-11-16T07:52:09.281Z,5.60
2022-11-16T07:53:19.753Z,4.95
2022-11-16T07:54:22.413Z,4.60
2022-11-16T07:55:26.627Z,5.53
2022-11-16T07:56:29.321Z,6.15
2022-11-16T07:57:32.185Z,5.15
2022-11-16T07:58:39.751Z,5.45
2022-11-16T07:59:43.765Z,5.45
2022-11-16T08:00:47.588Z,5.63
2022-11-16T08:01:51.798Z,5.20
2022-11-16T08:02:55.898Z,5.38
2022-11-16T08:03:59.009Z,5.45
2022-11-16T08:05:01.632Z,4.90
2022-11-16T08:06:16.526Z,4.95
2022-11-16T08:07:19.806Z,5.10
2022-11-16T08:08:27.722Z,5.13
2022-11-16T08:09:30.333Z,5.85
2022-11-16T08:10:33.950Z,5.60
2022-11-16T08:11:36.695Z,4.65
2022-11-16T08:12:40.120Z,4.35
2022-11-16T08:13:43.903Z,5.65
2022-11-16T08:14:46.529Z,5.35
2022-11-16T08:15:50.272Z,6.18
2022-11-16T08:16:52.886Z,5.30
2022-11-16T08:17:57.467Z,5.45
2022-11-16T08:19:01.508Z,5.68
2022-11-16T08:20:04.752Z,5.30
2022-11-16T08:21:09.245Z,5.30
2022-11-16T08:22:11.995Z,4.95
2022-11-16T08:23:16.657Z,5.40
2022-11-16T08:24:19.280Z,5.25
2022-11-16T08:25:22.567Z,5.55
2022-11-16T08:26:25.291Z,4.82
2022-11-16T08:27:33.875Z,5.43
2022-11-16T08:28:37.865Z,5.65
2022-11-16T08:29:40.399Z,5.53
2022-11-16T08:30:48.437Z,5.28
2022-11-16T08:31:55.523Z,5.70
2022-11-16T08:32:58.522Z,5.40
2022-11-16T08:34:01.694Z,5.10
2022-11-16T08:35:08.707Z,5.05
2022-11-16T08:36:17.371Z,4.82
2022-11-16T08:37:21.572Z,5.22
2022-11-16T08:38:24.370Z,4.85
2022-11-16T08:39:26.956Z,5.30
2022-11-16T08:40:29.759Z,5.45
2022-11-16T08:41:32.880Z,5.00
2022-11-16T08:42:39.436Z,4.68
2022-11-16T08:43:47.427Z,5.38
2022-11-16T08:44:50.587Z,5.22
2022-11-16T08:45:56.221Z,5.38
2022-11-16T08:46:59.071Z,4.88
2022-11-16T08:48:22.223Z,5.22
2022-11-16T08:49:24.964Z,5.68
2022-11-16T08:50:27.833Z,5.22
2022-11-16T08:51:30.414Z,5.07
2022-11-16T08:52:39.921Z,5.35
2022-11-16T08:53:42.876Z,4.28
2022-11-16T08:54:45.734Z,4.75
2022-11-16T08:55:48.364Z,4.72
2022-11-16T08:56:51.399Z,5.78
2022-11-16T08:57:55.664Z,4.75
2022-11-16T08:58:59.902Z,4.35
2022-11-16T09:00:07.312Z,4.47
2022-11-16T09:01:12.515Z,5.00
2022-11-16T09:02:15.278Z,4.53
2022-11-16T09:03:18.117Z,5.68
2022-11-16T09:04:20.708Z,4.38
2022-11-16T09:05:23.348Z,5.03
2022-11-16T09:06:27.842Z,4.10
2022-11-16T09:07:30.520Z,4.35
2022-11-16T09:08:34.224Z,4.18
2022-11-16T09:09:37.290Z,4.70
2022-11-16T09:10:39.813Z,3.95
2022-11-16T09:11:42.626Z,4.80
2022-11-16T09:12:45.186Z,3.92
2022-11-16T09:13:50.347Z,4.20
2022-11-16T09:14:52.905Z,4.57
2022-11-16T09:16:00.038Z,3.97
2022-11-16T09:17:02.827Z,4.40
2022-11-16T09:18:05.414Z,4.10
2022-11-16T09:19:08.328Z,3.83
2022-11-16T09:20:11.185Z,4.20
2022-11-16T09:21:24.695Z,4.10
2022-11-16T09:23:29.953Z,3.88
2022-11-16T09:24:32.784Z,3.72
2022-11-16T09:25:35.309Z,3.35
2022-11-16T09:26:37.972Z,3.75
2022-11-16T09:27:40.750Z,3.70
2022-11-16T09:28:43.353Z,3.67
2022-11-16T09:29:46.224Z,4.40
2022-11-16T09:30:51.152Z,3.67
2022-11-16T09:31:54.498Z,3.90
2022-11-16T09:32:59.342Z,3.65
2022-11-16T09:34:03.051Z,3.95
2022-11-16T09:35:06.068Z,3.70
2022-11-16T09:36:09.694Z,3.85
2022-11-16T09:37:12.311Z,3.50
2022-11-16T09:38:20.680Z,3.47
2022-11-16T09:39:32.733Z,3.35
2022-11-16T09:40:42.441Z,3.53
2022-11-16T09:42:03.742Z,3.60
2022-11-16T09:43:47.917Z,3.22
2022-11-16T09:44:53.902Z,3.55
2022-11-16T09:46:19.237Z,3.78
2022-11-16T09:47:26.237Z,3.17
2022-11-16T09:48:29.011Z,3.20
2022-11-16T09:49:38.369Z,3.10
2022-11-16T09:50:54.506Z,3.13
2022-11-16T09:52:02.986Z,3.10
2022-11-16T09:53:15.415Z,3.17
2022-11-16T09:54:23.234Z,2.65
2022-11-16T09:55:38.177Z,3.08
2022-11-16T09:56:42.643Z,2.78
2022-11-16T09:57:47.690Z,2.88
2022-11-16T09:59:00.523Z,2.90
2022-11-16T10:00:11.704Z,3.72
2022-11-16T10:01:45.134Z,3.20
2022-11-16T10:03:11.547Z,3.33
2022-11-16T10:04:40.689Z,3.17
2022-11-16T10:06:05.813Z,2.85
2022-11-16T10:07:22.896Z,3.33
2022-11-16T10:08:47.945Z,2.83
2022-11-16T10:09:50.908Z,2.95
2022-11-16T10:11:34.519Z,2.95
2022-11-16T10:13:04.330Z,2.88
2022-11-16T10:14:29.815Z,2.65
2022-11-16T10:15:35.167Z,3.00
2022-11-16T10:16:55.989Z,2.58
2022-11-16T10:18:08.205Z,2.53
2022-11-16T10:19:42.153Z,2.55
2022-11-16T10:21:07.513Z,2.33
2022-11-16T10:22:34.720Z,4.13
2022-11-16T10:23:50.090Z,2.83
2022-11-16T10:24:59.939Z,2.70
2022-11-16T10:26:40.236Z,2.45
2022-11-16T10:27:51.234Z,2.10
2022-11-16T10:29:18.811Z,2.47
2022-11-16T10:30:22.534Z,2.38
2022-11-16T10:31:43.815Z,2.53
2022-11-16T10:33:02.795Z,2.33
2022-11-16T10:34:11.727Z,3.05
2022-11-16T10:35:20.133Z,2.65
2022-11-16T10:36:27.627Z,2.78
2022-11-16T10:37:32.843Z,2.38
2022-11-16T10:38:35.970Z,2.40
2022-11-16T10:39:41.205Z,3.08
2022-11-16T10:40:50.097Z,2.38
2022-11-16T10:41:52.723Z,2.53
2022-11-16T10:43:01.276Z,2.25
2022-11-16T10:44:18.635Z,2.47
2022-11-16T10:46:00.278Z,2.13
2022-11-16T10:47:36.954Z,2.55
2022-11-16T10:48:51.686Z,2.25
2022-11-16T10:49:54.525Z,2.92
2022-11-16T10:50:57.633Z,2.50
2022-11-16T10:52:00.220Z,2.22
2022-11-16T10:53:02.899Z,2.70
2022-11-16T10:54:15.923Z,2.38
2022-11-16T10:55:21.007Z,2.65
2022-11-16T10:56:23.452Z,3.20
2022-11-16T10:57:46.193Z,1.92
2022-11-16T10:59:03.651Z,2.55
2022-11-16T11:00:12.525Z,2.03
2022-11-16T11:01:30.561Z,2.60
2022-11-16T11:02:39.468Z,2.03
2022-11-16T11:03:41.988Z,2.30
2022-11-16T11:05:20.443Z,2.47
2022-11-16T11:06:26.384Z,2.50
2022-11-16T11:07:40.277Z,2.00
2022-11-16T11:08:42.925Z,1.88
2022-11-16T11:09:53.309Z,2.50
2022-11-16T11:11:24.019Z,2.28
2022-11-16T11:12:39.382Z,2.47
2022-11-16T11:13:41.964Z,2.45
2022-11-16T11:15:11.468Z,2.10
2022-11-16T11:16:19.253Z,2.10
2022-11-16T11:17:21.926Z,2.25
2022-11-16T11:18:24.563Z,2.15
2022-11-16T11:19:29.233Z,2.42
2022-11-16T11:20:32.390Z,2.30
2022-11-16T11:21:35.276Z,2.47
2022-11-16T11:22:46.718Z,2.38
2022-11-16T11:24:10.550Z,2.30
2022-11-16T11:25:33.540Z,2.28
2022-11-16T11:26:40.473Z,1.63
2022-11-16T11:27:43.470Z,2.40
2022-11-16T11:28:48.255Z,1.73
2022-11-16T11:29:56.104Z,2.03
2022-11-16T11:31:11.318Z,1.60
2022-11-16T11:32:22.456Z,2.05
2022-11-16T11:33:48.592Z,2.35
2022-11-16T11:34:54.150Z,1.80
2022-11-16T11:36:07.351Z,1.80
2022-11-16T11:37:19.163Z,2.42
2022-11-16T11:38:21.974Z,1.80
2022-11-16T11:39:24.678Z,2.15
2022-11-16T11:40:29.617Z,1.95
2022-11-16T11:41:37.339Z,2.22
2022-11-16T11:42:51.589Z,2.13
2022-11-16T11:44:13.853Z,2.03
2022-11-16T11:45:17.059Z,1.63
2022-11-16T11:46:42.240Z,1.73
2022-11-16T11:48:07.471Z,1.58
2022-11-16T11:49:33.992Z,2.05
2022-11-16T11:50:51.846Z,1.60
2022-11-16T11:51:59.286Z,1.33
2022-11-16T11:54:45.656Z,1.73
2022-11-16T11:55:55.413Z,1.40
2022-11-16T11:56:59.091Z,1.98
2022-11-16T11:58:04.360Z,1.33
2022-11-16T11:59:07.054Z,1.92
2022-11-16T12:00:14.311Z,1.95
2022-11-16T12:02:43.306Z,2.95
2022-11-16T12:04:36.692Z,1.60
2022-11-16T12:05:55.579Z,1.75
2022-11-16T12:07:19.767Z,1.90
2022-11-16T12:08:28.900Z,1.77
2022-11-16T12:09:50.968Z,2.08
2022-11-16T12:11:18.113Z,1.58
2022-11-16T12:12:32.855Z,1.65
2022-11-16T12:14:00.019Z,1.58
2022-11-16T12:15:35.814Z,1.65
2022-11-16T12:17:04.054Z,1.83
2022-11-16T12:18:34.193Z,1.73
2022-11-16T12:19:59.639Z,1.65
2022-11-16T12:21:32.672Z,1.85
2022-11-16T12:23:14.783Z,2.03
2022-11-16T12:24:45.203Z,1.45
2022-11-16T12:26:06.074Z,1.45
2022-11-16T12:27:28.051Z,1.33
2022-11-16T12:28:41.587Z,1.52
2022-11-16T12:29:59.244Z,1.67
2022-11-16T12:31:34.374Z,1.30
2022-11-16T12:32:47.645Z,1.35
2022-11-16T12:34:28.403Z,1.60
2022-11-16T12:35:54.868Z,1.80
2022-11-16T12:37:33.182Z,1.58
2022-11-16T12:38:38.414Z,1.40
2022-11-16T12:40:21.038Z,1.33
2022-11-16T12:41:26.940Z,1.65
2022-11-16T12:42:40.670Z,1.60
2022-11-16T12:44:03.099Z,1.52
2022-11-16T12:45:32.576Z,1.88
2022-11-16T12:46:50.453Z,1.38
2022-11-16T12:47:54.340Z,1.25
2022-11-16T12:49:12.790Z,1.70
2022-11-16T12:50:37.763Z,1.60
2022-11-16T12:52:18.154Z,1.73
2022-11-16T12:53:36.019Z,1.33
2022-11-16T12:55:24.961Z,1.95
2022-11-16T12:56:52.220Z,1.25
2022-11-16T12:58:03.115Z,1.50
2022-11-16T12:59:14.442Z,1.65
2022-11-16T13:00:20.473Z,1.48
2022-11-16T13:01:29.961Z,1.40
2022-11-16T13:02:51.330Z,1.73
2022-11-16T13:04:03.953Z,1.50
2022-11-16T13:05:54.266Z,1.45
2022-11-16T13:07:19.081Z,1.35
2022-11-16T13:08:49.500Z,1.48
2022-11-16T13:09:59.362Z,1.45
2022-11-16T13:11:16.739Z,1.23
2022-11-16T13:12:23.652Z,1.50
2022-11-16T13:13:38.584Z,1.33
2022-11-16T13:14:45.393Z,1.38
2022-11-16T13:15:48.191Z,1.38
2022-11-16T13:16:52.311Z,1.77
2022-11-16T13:17:59.918Z,1.35
2022-11-16T13:19:06.054Z,1.70
2022-11-16T13:20:23.283Z,1.17
2022-11-16T13:21:30.301Z,1.30
2022-11-16T13:22:36.909Z,1.08
2022-11-16T13:23:51.884Z,1.45
2022-11-16T13:25:33.784Z,1.30
2022-11-16T13:27:00.615Z,1.15
2022-11-16T13:28:20.729Z,1.20
2022-11-16T13:29:37.961Z,1.38
2022-11-16T13:31:05.444Z,2.22
2022-11-16T13:32:46.849Z,1.35
2022-11-16T13:33:58.637Z,1.00
2022-11-16T13:35:06.906Z,1.15
2022-11-16T13:36:45.998Z,1.20
2022-11-16T13:37:50.695Z,1.40
2022-11-16T13:38:54.386Z,1.65
2022-11-16T13:40:00.248Z,1.52
2022-11-16T13:41:29.172Z,1.10
2022-11-16T13:42:39.345Z,1.67
2022-11-16T13:43:49.636Z,1.10
2022-11-16T13:44:53.562Z,1.42
2022-11-16T13:46:01.066Z,1.52
2022-11-16T13:47:07.187Z,1.52
2022-11-16T13:48:50.333Z,1.58
2022-11-16T13:49:56.888Z,1.27
2022-11-16T13:51:02.686Z,1.15
2022-11-16T13:52:48.274Z,1.55
2022-11-16T13:54:37.854Z,1.42
2022-11-16T13:55:27.141Z,1.55
2022-11-16T13:56:49.000Z,1.05
2022-11-16T13:57:53.788Z,1.15
2022-11-16T13:58:57.426Z,1.25
2022-11-16T14:00:03.000Z,1.52
2022-11-16T14:01:11.006Z,1.85
2022-11-16T14:02:33.669Z,1.52
2022-11-16T14:03:40.475Z,1.40
2022-11-16T14:04:56.243Z,1.20
2022-11-16T14:05:59.108Z,1.63
2022-11-16T14:07:01.906Z,1.40
2022-11-16T14:08:22.714Z,1.55
2022-11-16T14:09:45.605Z,1.45
2022-11-16T14:10:50.990Z,1.75
2022-11-16T14:11:57.127Z,1.27
2022-11-16T14:13:01.126Z,1.42
2022-11-16T14:14:06.285Z,1.23
2022-11-16T14:15:17.144Z,1.63
2022-11-16T14:16:20.060Z,1.52
2022-11-16T14:17:51.394Z,2.47
2022-11-16T14:18:55.658Z,1.50
2022-11-16T14:19:58.363Z,1.30
2022-11-16T14:21:22.019Z,1.27
2022-11-16T14:22:57.417Z,1.38
2022-11-16T14:24:19.020Z,1.20
2022-11-16T14:25:40.813Z,1.58
2022-11-16T14:26:49.343Z,1.20
2022-11-16T14:28:13.364Z,1.45
2022-11-16T14:29:25.418Z,1.40
2022-11-16T14:31:10.052Z,1.92
2022-11-16T14:32:22.794Z,1.40
2022-11-16T14:33:32.517Z,1.60
2022-11-16T14:34:42.520Z,1.70
2022-11-16T14:35:52.664Z,1.48
2022-11-16T14:36:56.177Z,1.70
2022-11-16T14:38:01.985Z,1.55
2022-11-16T14:39:37.491Z,1.80
2022-11-16T14:40:46.814Z,1.17
2022-11-16T14:41:49.755Z,1.67
2022-11-16T14:44:25.288Z,1.70
2022-11-16T14:45:30.248Z,1.75
2022-11-16T14:46:36.424Z,1.63
2022-11-16T14:47:39.841Z,1.33
2022-11-16T14:48:46.591Z,1.80
2022-11-16T14:49:49.603Z,1.23
2022-11-16T14:51:11.615Z,1.60
2022-11-16T14:52:16.660Z,1.60
2022-11-16T14:53:20.550Z,1.15
2022-11-16T14:54:46.783Z,1.48
2022-11-16T14:55:49.450Z,1.67
2022-11-16T14:57:13.390Z,1.73
2022-11-16T14:58:21.894Z,1.70
2022-11-16T14:59:25.205Z,1.30
2022-11-16T15:00:30.447Z,1.25
2022-11-16T15:01:40.302Z,1.80
2022-11-16T15:02:48.108Z,1.60
2022-11-16T15:03:59.027Z,1.75
2022-11-16T15:05:01.864Z,1.80
2022-11-16T15:06:07.476Z,1.50
2022-11-16T15:07:13.167Z,1.67
2022-11-16T15:08:20.665Z,1.80
2022-11-16T15:09:28.706Z,1.60
2022-11-16T15:10:31.392Z,1.40
2022-11-16T15:11:57.805Z,1.50
2022-11-16T15:13:00.961Z,1.70
2022-11-16T15:14:03.619Z,2.50
2022-11-16T15:15:17.688Z,1.50
2022-11-16T15:16:21.057Z,1.65
2022-11-16T15:17:31.898Z,1.48
2022-11-16T15:18:36.189Z,1.48
2022-11-16T15:19:38.821Z,1.55
2022-11-16T15:20:50.757Z,1.42
2022-11-16T15:21:56.000Z,1.52
2022-11-16T15:23:00.860Z,1.42
2022-11-16T15:25:29.823Z,1.33
2022-11-16T15:26:32.387Z,1.27
2022-11-16T15:27:41.007Z,1.13
2022-11-16T15:28:49.771Z,1.77
2022-11-16T15:29:52.767Z,1.73
2022-11-16T15:30:58.978Z,1.33
2022-11-16T15:32:01.962Z,1.70
2022-11-16T15:33:16.997Z,1.45
2022-11-16T15:34:20.366Z,2.00
2022-11-16T15:35:28.252Z,1.42
2022-11-16T15:36:49.119Z,1.60
2022-11-16T15:38:15.222Z,1.60
2022-11-16T15:39:23.531Z,1.45
2022-11-16T15:40:26.446Z,1.65
2022-11-16T15:41:29.617Z,1.55